createdAt,value
2017-11-30T00:00:43.220Z,57.27
2017-11-30T00:03:11.223Z,55.70
2017-11-30T00:05:38.695Z,55.40
2017-11-30T00:08:06.158Z,54.27
2017-11-30T00:10:33.914Z,53.57
2017-11-30T00:13:01.376Z,49.10
2017-11-30T00:15:28.839Z,46.77
2017-11-30T00:17:56.901Z,47.87
2017-11-30T00:20:24.359Z,52.50
2017-11-30T00:22:52.211Z,50.00
2017-11-30T00:25:20.058Z,50.47
2017-11-30T00:27:47.517Z,49.07
2017-11-30T00:30:14.983Z,52.53
2017-11-30T00:32:42.904Z,50.43
2017-11-30T00:35:10.375Z,53.23
2017-11-30T00:37:37.841Z,49.43
2017-11-30T00:40:05.585Z,51.10
2017-11-30T00:42:44.726Z,46.23
2017-11-30T00:45:12.558Z,44.73
2017-11-30T00:47:40.019Z,45.63
2017-11-30T00:50:07.479Z,51.43
2017-11-30T00:52:35.473Z,46.73
2017-11-30T00:55:02.947Z,49.27
2017-11-30T00:57:30.403Z,49.03
2017-11-30T00:59:58.043Z,48.43
2017-11-30T01:02:25.496Z,51.20
2017-11-30T01:04:52.959Z,51.10
2017-11-30T01:07:20.547Z,48.50
2017-11-30T01:09:48.015Z,50.20
2017-11-30T01:12:15.469Z,47.57
2017-11-30T01:14:43.247Z,49.30
2017-11-30T01:17:10.717Z,48.83
2017-11-30T01:19:38.177Z,49.80
2017-11-30T01:22:05.926Z,50.93
2017-11-30T01:24:34.061Z,52.37
2017-11-30T01:27:01.528Z,52.33
2017-11-30T01:29:29.211Z,49.27
2017-11-30T01:31:56.670Z,45.93
2017-11-30T01:34:24.135Z,49.20
2017-11-30T01:36:51.746Z,46.93
2017-11-30T01:39:19.207Z,46.83
2017-11-30T01:41:46.670Z,48.17
2017-11-30T01:44:14.604Z,43.57
2017-11-30T01:46:42.058Z,43.53
2017-11-30T01:49:09.527Z,48.13
2017-11-30T01:51:37.285Z,50.77
2017-11-30T01:54:04.753Z,49.40
2017-11-30T01:56:32.211Z,49.57
2017-11-30T01:58:59.838Z,45.27
2017-11-30T02:01:27.313Z,45.87
2017-11-30T02:03:54.775Z,42.00
2017-11-30T02:06:22.648Z,39.20
2017-11-30T02:08:50.102Z,43.30
2017-11-30T02:11:17.567Z,44.97
2017-11-30T02:13:45.337Z,44.43
2017-11-30T02:16:12.798Z,40.93
2017-11-30T02:18:40.262Z,40.90
2017-11-30T02:21:08.027Z,37.07
2017-11-30T02:23:35.485Z,36.40
2017-11-30T02:26:03.642Z,39.00
2017-11-30T02:28:31.464Z,42.13
2017-11-30T02:30:58.931Z,44.23
2017-11-30T02:33:26.421Z,38.80
2017-11-30T02:35:54.332Z,38.60
2017-11-30T02:38:21.793Z,37.50
2017-11-30T02:40:49.249Z,39.90
2017-11-30T02:43:16.974Z,41.57
2017-11-30T02:45:44.437Z,40.87
2017-11-30T02:48:11.899Z,44.07
2017-11-30T02:50:39.728Z,42.40
2017-11-30T02:53:07.189Z,41.57
2017-11-30T02:55:34.660Z,42.80
2017-11-30T02:58:02.738Z,44.47
2017-11-30T03:00:30.198Z,45.30
2017-11-30T03:02:57.661Z,41.43
2017-11-30T03:05:25.377Z,43.60
2017-11-30T03:07:52.842Z,40.73
2017-11-30T03:10:20.306Z,39.97
2017-11-30T03:12:48.368Z,40.83
2017-11-30T03:15:15.829Z,44.77
2017-11-30T03:17:43.294Z,40.27
2017-11-30T03:20:11.054Z,39.47
2017-11-30T03:22:38.514Z,41.73
2017-11-30T03:25:05.971Z,44.57
2017-11-30T03:27:34.048Z,43.70
2017-11-30T03:30:01.532Z,41.90
2017-11-30T03:32:28.996Z,48.83
2017-11-30T03:34:57.047Z,45.97
2017-11-30T03:37:24.513Z,43.87
2017-11-30T03:39:51.972Z,43.07
2017-11-30T03:42:19.731Z,45.90
2017-11-30T03:44:47.191Z,43.73
2017-11-30T03:47:14.883Z,43.10
2017-11-30T03:49:42.738Z,42.17
2017-11-30T03:52:10.201Z,42.30
2017-11-30T03:54:37.659Z,46.30
2017-11-30T03:57:05.411Z,46.97
2017-11-30T03:59:32.875Z,44.70
2017-11-30T04:02:00.347Z,43.00
2017-11-30T04:04:28.149Z,43.07
2017-11-30T04:06:55.608Z,41.17
2017-11-30T04:09:23.069Z,44.33
2017-11-30T04:11:51.056Z,41.63
2017-11-30T04:14:18.510Z,40.30
2017-11-30T04:16:45.973Z,41.37
2017-11-30T04:19:13.786Z,41.37
2017-11-30T04:21:41.246Z,41.00
2017-11-30T04:24:08.708Z,43.97
2017-11-30T04:26:36.473Z,41.30
2017-11-30T04:29:04.623Z,41.97
2017-11-30T04:31:32.084Z,42.10
2017-11-30T04:33:59.766Z,44.43
2017-11-30T04:36:27.223Z,45.37
2017-11-30T04:38:54.695Z,43.20
2017-11-30T04:41:22.372Z,41.27
2017-11-30T04:43:49.830Z,38.57
2017-11-30T04:46:17.299Z,41.30
2017-11-30T04:48:44.935Z,40.73
2017-11-30T04:51:12.394Z,34.03
2017-11-30T04:53:39.863Z,31.23
2017-11-30T04:56:07.838Z,31.23
2017-11-30T04:58:35.942Z,27.40
2017-11-30T05:01:03.408Z,29.23
2017-11-30T05:03:31.445Z,25.80
2017-11-30T05:05:58.913Z,32.60
2017-11-30T05:08:26.373Z,30.33
2017-11-30T05:10:54.130Z,27.00
2017-11-30T05:13:21.607Z,27.37
2017-11-30T05:15:49.063Z,28.47
2017-11-30T05:18:16.819Z,24.20
2017-11-30T05:20:44.284Z,26.40
2017-11-30T05:23:11.748Z,26.23
2017-11-30T05:25:39.499Z,20.43
2017-11-30T05:28:06.954Z,18.87
2017-11-30T05:30:34.822Z,20.10
2017-11-30T05:33:02.802Z,19.80
2017-11-30T05:35:30.266Z,22.20
2017-11-30T05:37:57.734Z,22.80
2017-11-30T05:40:25.790Z,18.23
2017-11-30T05:42:53.256Z,12.67
2017-11-30T05:45:20.714Z,17.50
2017-11-30T05:47:48.489Z,19.43
2017-11-30T05:50:15.973Z,18.70
2017-11-30T05:52:43.440Z,21.83
2017-11-30T05:55:11.458Z,17.40
2017-11-30T05:57:38.910Z,20.93
2017-11-30T06:00:06.404Z,13.80
2017-11-30T06:02:34.200Z,17.97
2017-11-30T06:05:01.665Z,18.77
2017-11-30T06:07:29.113Z,17.17
2017-11-30T06:09:57.470Z,22.77
2017-11-30T06:12:24.932Z,25.10
2017-11-30T06:14:52.403Z,21.53
2017-11-30T06:17:20.156Z,19.07
2017-11-30T06:19:47.618Z,23.40
2017-11-30T06:22:15.088Z,30.48
2017-11-30T06:24:42.851Z,23.47
2017-11-30T06:27:10.308Z,33.20
2017-11-30T06:29:37.765Z,32.17
2017-11-30T06:32:05.830Z,24.87
2017-11-30T06:34:33.287Z,35.37
2017-11-30T06:37:00.744Z,34.50
2017-11-30T06:39:28.521Z,26.80
2017-11-30T06:41:55.993Z,39.43
2017-11-30T06:44:23.462Z,34.57
2017-11-30T06:46:51.212Z,32.60
2017-11-30T06:49:18.681Z,33.40
2017-11-30T06:51:46.145Z,44.00
2017-11-30T06:54:13.922Z,38.80
2017-11-30T06:56:42.036Z,45.00
2017-11-30T06:59:09.499Z,54.17
2017-11-30T07:01:37.194Z,49.60
2017-11-30T07:04:04.668Z,35.60
2017-11-30T07:06:32.126Z,46.80
2017-11-30T07:09:00.549Z,34.93
2017-11-30T07:11:28.009Z,31.07
2017-11-30T07:13:55.561Z,32.90
2017-11-30T07:16:23.490Z,26.87
2017-11-30T07:18:50.952Z,42.20
2017-11-30T07:21:18.409Z,56.40
2017-11-30T07:23:46.185Z,61.55
2017-11-30T07:26:13.654Z,61.05
2017-11-30T07:35:25.378Z,56.55
2017-11-30T07:37:52.961Z,48.33
2017-11-30T07:40:20.445Z,30.33
2017-11-30T07:42:48.079Z,41.87
2017-11-30T07:45:15.538Z,39.13
2017-11-30T07:47:42.999Z,28.10
2017-11-30T07:50:10.758Z,41.53
2017-11-30T07:52:38.211Z,49.28
2017-11-30T07:55:05.670Z,57.28
2017-11-30T07:57:33.442Z,50.47
2017-11-30T08:00:00.894Z,16.43
2017-11-30T08:02:28.365Z,39.97
2017-11-30T08:04:56.104Z,45.08
2017-11-30T08:07:23.571Z,42.65
2017-11-30T08:09:51.034Z,46.70
2017-11-30T08:12:18.665Z,20.53
2017-11-30T08:16:59.625Z,31.73
2017-11-30T08:19:27.370Z,30.55
2017-11-30T08:21:54.830Z,43.07
2017-11-30T08:24:22.296Z,36.00
2017-11-30T08:26:50.055Z,23.20
2017-11-30T08:29:17.555Z,17.23
2017-11-30T08:31:45.009Z,32.83
2017-11-30T08:34:12.754Z,24.93
2017-11-30T08:36:40.610Z,30.23
2017-11-30T08:39:08.067Z,14.13
2017-11-30T08:41:35.966Z,13.53
2017-11-30T08:44:03.445Z,21.85
2017-11-30T08:46:30.902Z,29.00
2017-11-30T08:48:58.745Z,32.10
2017-11-30T08:51:26.220Z,28.03
2017-11-30T08:53:53.682Z,11.07
2017-11-30T08:56:21.512Z,25.65
2017-11-30T08:58:48.972Z,16.20
2017-11-30T09:01:16.438Z,23.20
2017-11-30T09:03:44.232Z,23.07
2017-11-30T09:06:11.687Z,25.57
2017-11-30T09:08:39.594Z,25.00
2017-11-30T09:11:07.411Z,22.77
2017-11-30T09:13:34.872Z,10.63
2017-11-30T09:16:02.335Z,22.20
2017-11-30T09:18:30.407Z,8.90
2017-11-30T09:20:57.874Z,21.90
2017-11-30T09:23:25.335Z,8.80
2017-11-30T09:25:53.102Z,23.07
2017-11-30T09:28:20.568Z,29.27
2017-11-30T09:30:48.034Z,23.03
2017-11-30T09:33:15.623Z,30.87
2017-11-30T09:35:43.104Z,22.57
2017-11-30T09:38:11.396Z,21.40
2017-11-30T09:40:39.087Z,15.43
2017-11-30T09:43:06.551Z,18.73
2017-11-30T09:45:34.011Z,9.43
2017-11-30T09:48:01.772Z,12.73
2017-11-30T09:50:29.258Z,20.30
2017-11-30T09:52:56.719Z,24.03
2017-11-30T09:55:24.457Z,24.03
2017-11-30T09:57:51.924Z,33.40
2017-11-30T10:00:19.402Z,37.73
2017-11-30T10:02:47.134Z,24.93
2017-11-30T10:05:14.620Z,36.27
2017-11-30T10:07:42.071Z,24.47
2017-11-30T10:10:09.835Z,15.97
2017-11-30T10:12:37.299Z,20.53
2017-11-30T10:15:04.756Z,50.27
2017-11-30T10:17:32.511Z,43.83
2017-11-30T10:19:59.973Z,39.93
2017-11-30T10:22:27.435Z,23.97
2017-11-30T10:24:55.203Z,33.33
2017-11-30T10:27:22.667Z,27.53
2017-11-30T10:29:50.119Z,54.37
2017-11-30T10:32:17.906Z,54.27
2017-11-30T10:34:45.363Z,41.93
2017-11-30T10:37:12.837Z,43.80
2017-11-30T10:39:41.502Z,32.77
2017-11-30T10:42:08.964Z,41.97
2017-11-30T10:44:36.416Z,43.30
2017-11-30T10:47:04.183Z,19.37
2017-11-30T10:49:31.638Z,38.80
2017-11-30T10:51:59.122Z,23.57
2017-11-30T10:54:26.879Z,28.93
2017-11-30T10:56:54.341Z,35.23
2017-11-30T10:59:21.811Z,31.43
2017-11-30T11:01:49.551Z,22.13
2017-11-30T11:04:17.008Z,21.80
2017-11-30T11:06:44.465Z,45.83
2017-11-30T11:09:12.254Z,29.73
2017-11-30T11:11:39.710Z,21.77
2017-11-30T11:14:07.177Z,24.53
2017-11-30T11:16:34.912Z,26.30
2017-11-30T11:19:02.367Z,45.47
2017-11-30T11:34:51.974Z,43.53
2017-11-30T11:41:47.960Z,39.57
2017-11-30T11:46:29.388Z,31.27
2017-11-30T11:48:57.226Z,24.67
2017-11-30T11:51:24.682Z,45.80
2017-11-30T11:53:52.131Z,41.97
2017-11-30T11:56:20.099Z,20.20
2017-11-30T11:58:47.559Z,20.40
2017-11-30T12:01:15.030Z,35.30
2017-11-30T12:03:42.662Z,34.87
2017-11-30T12:06:10.122Z,31.00
2017-11-30T12:08:37.585Z,26.17
2017-11-30T12:11:05.474Z,26.90
2017-11-30T12:13:32.930Z,17.10
2017-11-30T12:16:00.387Z,16.60
2017-11-30T12:18:27.974Z,25.30
2017-11-30T12:20:55.440Z,25.27
2017-11-30T12:23:22.906Z,21.00
2017-11-30T12:25:50.846Z,21.00
2017-11-30T12:28:18.299Z,21.80
2017-11-30T12:30:45.759Z,20.30
2017-11-30T12:33:13.491Z,20.60
2017-11-30T12:35:40.975Z,18.43
2017-11-30T12:38:08.430Z,20.20
2017-11-30T12:40:36.215Z,22.70
2017-11-30T12:43:04.071Z,24.87
2017-11-30T12:45:31.528Z,21.30
2017-11-30T12:47:59.529Z,23.67
2017-11-30T12:50:26.991Z,23.10
2017-11-30T12:52:54.448Z,18.20
2017-11-30T12:57:35.481Z,21.03
2017-11-30T13:00:02.946Z,26.80
2017-11-30T13:02:30.402Z,24.60
2017-11-30T13:04:58.173Z,21.03
2017-11-30T13:07:25.644Z,25.50
2017-11-30T13:09:53.098Z,20.50
2017-11-30T13:12:20.909Z,25.30
2017-11-30T13:14:48.369Z,21.63
2017-11-30T13:17:15.825Z,17.90
2017-11-30T13:19:43.592Z,20.37
2017-11-30T13:22:11.052Z,20.93
2017-11-30T13:24:38.500Z,22.33
2017-11-30T13:27:06.289Z,19.80
2017-11-30T13:29:33.749Z,24.30
2017-11-30T13:32:01.206Z,24.40
2017-11-30T13:34:28.968Z,23.37
2017-11-30T13:36:56.419Z,24.03
2017-11-30T13:39:23.877Z,25.33
2017-11-30T13:41:51.705Z,24.40
2017-11-30T13:44:19.187Z,20.33
2017-11-30T13:46:46.640Z,28.73
2017-11-30T13:49:14.341Z,25.77
2017-11-30T13:51:41.793Z,24.67
2017-11-30T13:54:09.252Z,29.63
2017-11-30T13:56:37.169Z,22.07
2017-11-30T13:59:04.621Z,27.87
2017-11-30T14:01:32.067Z,29.00
2017-11-30T14:04:00.040Z,28.83
2017-11-30T14:06:27.512Z,30.40
2017-11-30T14:08:54.966Z,30.40
2017-11-30T14:11:22.692Z,24.00
2017-11-30T14:13:50.150Z,19.27
2017-11-30T14:16:17.605Z,26.87
2017-11-30T14:18:45.285Z,18.43
2017-11-30T14:21:12.734Z,25.87
2017-11-30T14:23:40.200Z,21.27
2017-11-30T14:26:08.089Z,29.37
2017-11-30T14:28:35.544Z,18.27
2017-11-30T14:31:03.012Z,25.50
2017-11-30T14:35:44.713Z,25.43
2017-11-30T14:38:12.180Z,25.77
2017-11-30T14:40:39.641Z,17.73
2017-11-30T15:03:11.612Z,18.70
2017-11-30T15:05:39.072Z,20.33
2017-11-30T15:08:06.535Z,7.70
2017-11-30T15:10:34.369Z,19.20
2017-11-30T15:13:01.843Z,13.87
2017-11-30T15:15:29.313Z,16.53
2017-11-30T15:17:56.976Z,13.47
2017-11-30T15:20:24.419Z,6.60
2017-11-30T15:22:51.873Z,13.37
2017-11-30T15:25:19.725Z,10.23
2017-11-30T15:27:47.177Z,15.47
2017-11-30T15:30:14.633Z,14.27
2017-11-30T15:32:42.296Z,17.03
2017-11-30T15:35:10.382Z,18.17
2017-11-30T15:37:37.852Z,13.13
2017-11-30T15:40:05.696Z,18.63
2017-11-30T15:42:33.167Z,15.50
2017-11-30T15:45:00.612Z,8.40
2017-11-30T15:47:28.392Z,17.30
2017-11-30T15:49:55.849Z,11.37
2017-11-30T15:52:23.336Z,9.77
2017-11-30T15:54:51.044Z,14.87
2017-11-30T15:57:18.547Z,10.00
2017-11-30T15:59:46.033Z,12.20
2017-11-30T16:02:13.777Z,11.80
2017-11-30T16:04:41.922Z,11.90
2017-11-30T16:07:09.377Z,11.87
2017-11-30T16:09:37.065Z,9.67
2017-11-30T16:12:05.098Z,10.70
2017-11-30T16:41:18.848Z,11.30
2017-11-30T16:43:46.301Z,11.80
2017-11-30T16:46:13.767Z,12.07
2017-11-30T16:48:41.696Z,12.67
2017-11-30T16:51:09.153Z,12.37
2017-11-30T16:53:36.610Z,12.07
2017-11-30T16:56:10.206Z,13.80
2017-11-30T16:58:37.670Z,17.10
2017-11-30T17:01:05.128Z,14.20
2017-11-30T17:03:32.716Z,14.00
2017-11-30T17:06:02.764Z,14.77
2017-11-30T17:08:32.395Z,14.20
2017-11-30T17:11:02.450Z,14.40
2017-11-30T17:13:30.049Z,14.00
2017-11-30T17:15:57.521Z,14.83
2017-11-30T17:18:25.210Z,14.27
2017-11-30T17:20:52.678Z,13.30
2017-11-30T17:23:20.147Z,16.47
2017-11-30T17:25:47.784Z,14.63
2017-11-30T17:28:15.253Z,18.27
2017-11-30T17:30:42.710Z,16.53
2017-11-30T17:33:10.541Z,17.60
2017-11-30T17:35:38.007Z,14.93
2017-11-30T17:38:05.466Z,17.60
2017-11-30T17:40:33.389Z,17.47
2017-11-30T17:43:00.850Z,21.43
2017-11-30T17:45:28.301Z,24.80
2017-11-30T17:47:56.086Z,18.73
2017-11-30T17:50:23.568Z,16.03
2017-11-30T17:52:51.029Z,16.63
2017-11-30T17:55:18.776Z,18.58
2017-11-30T17:57:46.238Z,21.23
2017-11-30T18:00:13.711Z,17.67
2017-11-30T18:02:41.281Z,18.23
2017-11-30T18:05:08.737Z,17.80
2017-11-30T18:07:36.757Z,17.23
2017-11-30T18:10:04.456Z,17.03
2017-11-30T18:12:31.920Z,15.20
2017-11-30T18:14:59.378Z,15.53
2017-11-30T18:17:27.133Z,16.93
2017-11-30T18:19:54.585Z,15.77
2017-11-30T18:22:22.039Z,15.33
2017-11-30T18:24:49.830Z,15.70
2017-11-30T18:27:17.296Z,15.90
2017-11-30T18:29:44.756Z,16.43
2017-11-30T18:32:12.471Z,17.97
2017-11-30T18:34:39.934Z,13.30
2017-11-30T18:37:07.388Z,15.60
2017-11-30T18:39:34.975Z,16.20
2017-11-30T18:42:02.432Z,16.77
2017-11-30T18:44:29.890Z,13.33
2017-11-30T18:46:57.580Z,17.50
2017-11-30T18:49:25.045Z,16.73
2017-11-30T18:51:52.506Z,18.37
2017-11-30T18:54:20.262Z,15.50
2017-11-30T18:56:47.728Z,13.23
2017-11-30T18:59:15.192Z,16.20
2017-11-30T19:01:42.797Z,16.73
2017-11-30T19:04:10.257Z,12.60
2017-11-30T19:06:37.840Z,14.40
2017-11-30T19:09:06.877Z,16.37
2017-11-30T19:11:34.358Z,13.60
2017-11-30T19:14:02.132Z,12.40
2017-11-30T19:16:30.171Z,12.53
2017-11-30T19:18:57.677Z,11.87
2017-11-30T19:21:26.381Z,13.80
2017-11-30T19:23:54.129Z,17.30
2017-11-30T19:26:21.582Z,12.07
2017-11-30T19:28:49.342Z,11.40
2017-11-30T19:31:16.800Z,10.73
2017-11-30T19:33:44.358Z,13.03
2017-11-30T19:36:12.309Z,11.97
2017-11-30T19:38:39.771Z,9.50
2017-11-30T19:41:07.234Z,9.57
2017-11-30T19:43:34.989Z,9.20
2017-11-30T19:46:02.452Z,10.80
2017-11-30T19:48:30.540Z,13.13
2017-11-30T19:50:58.346Z,13.53
2017-11-30T19:53:25.799Z,13.43
2017-11-30T19:55:53.253Z,14.37
2017-11-30T19:58:20.993Z,14.90
2017-11-30T20:00:48.533Z,14.30
2017-11-30T20:03:16.041Z,15.73
2017-11-30T20:05:44.318Z,15.20
2017-11-30T20:08:11.781Z,14.80
2017-11-30T20:10:39.241Z,17.20
2017-11-30T20:13:08.496Z,14.63
2017-11-30T20:15:36.051Z,13.80
2017-11-30T20:18:03.513Z,16.70
2017-11-30T20:20:31.142Z,15.80
2017-11-30T20:22:59.126Z,16.77
2017-11-30T20:25:26.637Z,16.40
2017-11-30T20:27:55.077Z,16.93
2017-11-30T20:30:23.097Z,13.60
2017-11-30T20:32:50.544Z,17.27
2017-11-30T20:35:18.409Z,17.43
2017-11-30T20:37:45.861Z,18.30
2017-11-30T20:40:13.689Z,13.23
2017-11-30T20:42:41.921Z,17.43
2017-11-30T20:45:09.536Z,15.00
2017-11-30T20:47:37.275Z,15.50
2017-11-30T20:50:05.017Z,17.10
2017-11-30T20:52:33.552Z,20.50
2017-11-30T21:03:56.634Z,17.80
2017-11-30T21:06:24.914Z,17.60
2017-11-30T21:08:53.390Z,18.40
2017-11-30T21:11:22.004Z,18.33
2017-11-30T21:13:49.479Z,19.73
2017-11-30T21:16:16.934Z,19.80
2017-11-30T21:18:45.578Z,17.07
2017-11-30T21:21:13.277Z,19.97
2017-11-30T21:23:41.617Z,21.40
2017-11-30T21:26:09.313Z,17.50
2017-11-30T21:28:36.771Z,19.47
2017-11-30T21:31:04.226Z,19.60
2017-11-30T21:33:31.981Z,17.50
2017-11-30T21:35:59.436Z,18.30
2017-11-30T21:38:26.889Z,12.60
2017-11-30T21:40:54.661Z,13.70
2017-11-30T21:43:22.113Z,15.07
2017-11-30T21:54:44.748Z,22.63
2017-11-30T21:57:12.211Z,16.60
2017-11-30T21:59:39.659Z,16.00
2017-11-30T22:02:07.428Z,12.57
2017-11-30T22:04:34.872Z,16.47
2017-11-30T22:07:02.342Z,13.13
2017-11-30T22:09:30.125Z,19.70
2017-11-30T22:11:57.578Z,20.10
2017-11-30T22:14:25.032Z,19.03
2017-11-30T22:16:52.804Z,17.73
2017-11-30T22:19:20.259Z,22.00
2017-11-30T22:21:47.713Z,17.63
2017-11-30T22:24:16.102Z,23.17
2017-11-30T22:26:43.550Z,25.70
2017-11-30T22:29:11.020Z,28.33
2017-11-30T22:31:38.842Z,27.17
2017-11-30T22:34:06.305Z,22.83
2017-11-30T22:38:48.113Z,22.40
2017-11-30T22:43:29.531Z,35.30
2017-11-30T22:45:57.448Z,26.73
2017-11-30T22:48:24.921Z,27.03
2017-11-30T22:50:52.393Z,29.67
2017-11-30T22:53:20.140Z,21.67
2017-11-30T22:55:47.588Z,27.67
2017-11-30T22:58:15.044Z,29.40
2017-11-30T23:00:42.813Z,18.80
2017-11-30T23:03:10.275Z,31.50
2017-11-30T23:05:37.739Z,26.87
2017-11-30T23:08:05.501Z,21.70
2017-11-30T23:10:32.958Z,23.33
2017-11-30T23:13:00.421Z,33.70
2017-11-30T23:15:28.194Z,31.90
2017-11-30T23:17:55.654Z,27.30
2017-11-30T23:20:23.100Z,33.23
2017-11-30T23:22:50.715Z,29.93
2017-11-30T23:25:18.624Z,30.27
2017-11-30T23:27:46.080Z,30.20
2017-11-30T23:30:13.878Z,30.43
2017-11-30T23:32:41.325Z,28.83
2017-11-30T23:35:08.784Z,28.70
2017-11-30T23:37:36.559Z,27.70
2017-11-30T23:40:04.025Z,21.40
2017-11-30T23:42:31.490Z,28.90
2017-11-30T23:44:59.247Z,31.80
2017-11-30T23:47:26.722Z,27.63
2017-11-30T23:49:54.195Z,29.63
2017-11-30T23:52:21.937Z,28.43
2017-11-30T23:54:49.394Z,30.27
2017-11-30T23:57:16.856Z,33.63
2017-11-30T23:59:44.628Z,34.13
